Time;durP1;ratioP1;P1;durP2;ratioP2;P2;SDS_P1;SDS_P2;PMS_P1;PMS_P2;Temp;Humidity;BMP_temperature;BMP_pressure;BME280_temperature;BME280_humidity;BME280_pressure;Samples;Min_cycle;Max_cycle;Signal;HPM_P1;HPM_P2
2023/10/12 00:01:31;;;;;;;6.95;2.33;;;18.00;99.90;;;;;;5029101;28;20789;-73
2023/10/12 00:03:58;;;;;;;10.80;2.70;;;18.00;99.90;;;;;;5028653;28;20446;-73
2023/10/12 00:06:30;;;;;;;8.00;2.00;;;18.10;99.90;;;;;;5029501;28;20458;-73
2023/10/12 00:08:56;;;;;;;13.43;2.42;;;18.10;99.90;;;;;;5028684;28;20441;-73
2023/10/12 00:11:21;;;;;;;8.00;2.17;;;18.20;99.90;;;;;;5029965;28;20953;-73
2023/10/12 00:13:51;;;;;;;8.60;2.00;;;18.20;99.90;;;;;;5030518;28;20891;-73
2023/10/12 00:16:19;;;;;;;7.80;2.40;;;18.20;99.90;;;;;;5013836;28;20426;-73
2023/10/12 00:18:48;;;;;;;8.43;2.50;;;18.20;99.90;;;;;;5029765;28;20390;-73
2023/10/12 00:21:15;;;;;;;13.40;2.20;;;18.10;99.90;;;;;;5029961;28;20836;-73
2023/10/12 00:23:41;;;;;;;7.53;2.00;;;18.10;99.90;;;;;;5029277;28;20763;-73
2023/10/12 00:26:07;;;;;;;7.50;2.33;;;18.10;99.90;;;;;;5029161;28;21021;-73
2023/10/12 00:28:38;;;;;;;6.63;1.97;;;18.00;99.90;;;;;;5029439;28;20407;-73
2023/10/12 00:31:16;;;;;;;9.52;2.65;;;17.90;99.90;;;;;;5028687;28;20399;-74
2023/10/12 00:33:42;;;;;;;10.20;2.47;;;17.90;99.90;;;;;;5029482;28;20399;-73
2023/10/12 00:36:21;;;;;;;10.50;2.60;;;18.00;99.90;;;;;;5029454;28;20915;-73
2023/10/12 00:38:47;;;;;;;9.13;2.38;;;17.90;99.90;;;;;;5029114;28;20762;-73
2023/10/12 00:41:17;;;;;;;8.73;2.47;;;17.80;99.90;;;;;;5029207;28;20407;-73
2023/10/12 00:44:08;;;;;;;6.70;1.70;;;17.80;99.90;;;;;;5029264;28;20869;-73
2023/10/12 00:46:40;;;;;;;12.13;2.70;;;17.80;99.90;;;;;;5026132;28;20402;-73
2023/10/12 00:49:20;;;;;;;8.95;2.22;;;17.70;99.90;;;;;;5029115;28;20501;-73
2023/10/12 00:51:53;;;;;;;6.93;1.80;;;17.60;99.90;;;;;;5029154;28;20403;-73
2023/10/12 00:54:32;;;;;;;7.23;2.03;;;17.40;99.90;;;;;;5029182;28;20395;-73
2023/10/12 00:57:02;;;;;;;9.73;3.03;;;17.30;99.90;;;;;;5029080;28;20414;-73
2023/10/12 00:59:32;;;;;;;9.50;2.40;;;17.20;1.00;;;;;;5029484;28;20865;-73
2023/10/12 01:01:59;;;;;;;11.10;2.53;;;17.20;1.00;;;;;;5028871;28;20446;-73
2023/10/12 01:04:25;;;;;;;7.20;2.00;;;17.10;1.00;;;;;;5028728;28;20776;-73
2023/10/12 01:06:51;;;;;;;8.43;2.22;;;17.20;1.00;;;;;;5028746;28;20784;-73
2023/10/12 01:09:19;;;;;;;7.10;2.30;;;17.20;1.00;;;;;;5028660;28;20404;-73
2023/10/12 01:11:58;;;;;;;7.32;1.90;;;17.30;1.00;;;;;;5029040;28;20769;-73
2023/10/12 01:14:26;;;;;;;10.20;2.42;;;17.40;1.00;;;;;;5029679;28;20403;-73
2023/10/12 01:16:57;;;;;;;7.63;2.27;;;17.50;1.00;;;;;;5043117;28;20399;-73
2023/10/12 01:19:23;;;;;;;18.10;1.83;;;17.60;1.00;;;;;;5041744;28;20485;-72
2023/10/12 01:21:55;;;;;;;11.15;2.50;;;17.70;1.00;;;;;;5029128;28;20418;-73
2023/10/12 01:24:29;;;;;;;6.30;2.10;;;17.80;1.00;;;;;;5029063;28;20409;-74
2023/10/12 01:26:56;;;;;;;7.10;2.15;;;17.90;1.00;;;;;;5028813;28;20418;-72
2023/10/12 01:29:22;;;;;;;7.72;2.20;;;17.90;1.00;;;;;;5028456;28;20826;-73
2023/10/12 01:34:37;;;;;;;8.90;2.40;;;18.10;1.00;;;;;;5028750;28;20747;-73
2023/10/12 01:37:22;;;;;;;7.30;2.00;;;18.10;1.00;;;;;;5028718;28;20409;-73
2023/10/12 01:39:58;;;;;;;7.40;2.10;;;18.10;1.00;;;;;;5028998;28;20386;-73
2023/10/12 01:42:35;;;;;;;7.28;2.30;;;18.00;1.00;;;;;;5028639;28;20785;-73
2023/10/12 01:45:04;;;;;;;12.82;2.60;;;18.00;1.00;;;;;;5024839;28;20411;-73
2023/10/12 01:47:29;;;;;;;7.72;2.25;;;17.90;1.00;;;;;;5027946;28;20425;-73
2023/10/12 01:50:00;;;;;;;7.77;2.30;;;18.10;1.00;;;;;;5029318;28;20390;-74
2023/10/12 01:52:26;;;;;;;7.40;1.90;;;18.10;1.00;;;;;;5028274;28;20422;-74
2023/10/12 01:54:52;;;;;;;5.90;1.70;;;18.20;1.00;;;;;;5029122;28;20792;-74
2023/10/12 01:57:30;;;;;;;7.50;2.80;;;18.20;1.00;;;;;;5028450;28;20430;-74
2023/10/12 01:59:55;;;;;;;10.38;2.78;;;18.20;1.00;;;;;;5028762;28;20434;-74
2023/10/12 02:02:21;;;;;;;8.30;1.90;;;18.30;1.00;;;;;;5009000;28;20420;-73
2023/10/12 02:04:47;;;;;;;6.90;2.10;;;18.30;1.00;;;;;;5008855;28;20450;-73
2023/10/12 02:07:13;;;;;;;10.03;2.40;;;18.20;1.00;;;;;;5025562;28;20411;-73
2023/10/12 02:09:39;;;;;;;8.05;2.10;;;18.20;1.00;;;;;;5032093;28;20415;-73
2023/10/12 02:12:12;;;;;;;10.87;2.70;;;18.30;1.00;;;;;;5032251;28;20441;-73
2023/10/12 02:14:41;;;;;;;8.15;3.03;;;18.30;1.00;;;;;;5032159;28;20440;-73
2023/10/12 02:17:08;;;;;;;8.52;2.53;;;18.30;1.00;;;;;;5031956;28;20403;-73
2023/10/12 02:19:41;;;;;;;7.28;2.10;;;18.20;1.00;;;;;;5031528;28;21020;-74
2023/10/12 02:22:30;;;;;;;8.00;2.40;;;18.30;1.00;;;;;;5031871;28;20935;-74
2023/10/12 02:25:27;;;;;;;8.68;2.30;;;18.20;1.00;;;;;;5031635;28;20509;-74
2023/10/12 02:27:54;;;;;;;8.52;2.40;;;18.30;1.00;;;;;;5031200;28;20454;-74
2023/10/12 02:30:28;;;;;;;11.20;2.00;;;18.30;1.00;;;;;;5031570;28;20391;-74
2023/10/12 02:33:00;;;;;;;7.75;2.47;;;18.30;1.00;;;;;;5027530;28;20504;-74
2023/10/12 02:35:28;;;;;;;6.82;2.28;;;18.30;1.00;;;;;;5031595;28;20919;-74
2023/10/12 02:37:53;;;;;;;7.25;2.17;;;18.10;1.00;;;;;;5031549;28;20395;-74
2023/10/12 02:40:20;;;;;;;13.40;2.63;;;18.20;1.00;;;;;;5031730;28;20909;-74
2023/10/12 02:42:51;;;;;;;8.40;3.30;;;18.00;1.00;;;;;;5045044;28;20808;-74
2023/10/12 02:45:17;;;;;;;7.70;2.53;;;18.00;1.00;;;;;;5048956;28;20403;-74
2023/10/12 02:47:45;;;;;;;8.23;2.10;;;17.90;1.00;;;;;;5031417;28;20792;-74
2023/10/12 02:52:38;;;;;;;7.53;2.27;;;17.90;1.00;;;;;;5030500;28;20427;-74
2023/10/12 02:55:17;;;;;;;7.70;2.30;;;17.80;1.00;;;;;;5031163;28;20792;-74
2023/10/12 02:57:53;;;;;;;7.32;2.30;;;17.70;1.00;;;;;;5028467;28;20391;-74
2023/10/12 03:00:22;;;;;;;7.30;1.80;;;17.70;1.00;;;;;;5028539;28;20387;-74
2023/10/12 03:02:51;;;;;;;7.93;3.08;;;17.80;1.00;;;;;;5029137;28;20510;-74
2023/10/12 03:05:32;;;;;;;8.93;2.70;;;17.80;1.00;;;;;;5027719;28;20900;-74
2023/10/12 03:08:06;;;;;;;14.70;2.63;;;17.80;1.00;;;;;;5030892;28;20411;-74
2023/10/12 03:10:31;;;;;;;6.50;2.20;;;17.80;1.00;;;;;;5030129;28;20415;-73
2023/10/12 03:13:04;;;;;;;9.40;2.40;;;17.70;1.00;;;;;;5027496;28;21491;-74
2023/10/12 03:15:44;;;;;;;6.80;1.83;;;17.70;1.00;;;;;;5030471;28;20783;-74
2023/10/12 03:18:13;;;;;;;7.60;2.80;;;17.60;1.00;;;;;;5030286;28;20777;-72
2023/10/12 03:20:39;;;;;;;6.88;2.05;;;17.50;1.00;;;;;;5029507;28;20877;-72
2023/10/12 03:23:16;;;;;;;6.40;2.20;;;17.50;1.00;;;;;;5030435;28;20517;-72
2023/10/12 03:25:51;;;;;;;8.80;2.30;;;17.50;1.00;;;;;;5009703;28;20482;-72
2023/10/12 03:33:53;;;;;;;12.73;2.58;;;17.70;1.00;;;;;;5044139;28;20406;-72
2023/10/12 03:36:32;;;;;;;7.15;2.28;;;17.70;1.00;;;;;;5042260;28;20984;-72
2023/10/12 03:52:34;;;;;;;8.20;2.70;;;17.40;99.90;;;;;;5027962;28;20422;-72
2023/10/12 04:05:16;;;;;;;10.27;2.70;;;17.40;99.90;;;;;;5026969;28;20407;-72
2023/10/12 04:18:42;;;;;;;6.60;1.90;;;17.50;1.00;;;;;;5025566;28;20436;-73
2023/10/12 04:21:17;;;;;;;8.63;2.00;;;17.50;1.00;;;;;;5026520;28;20496;-75
2023/10/12 04:24:27;;;;;;;6.55;2.00;;;17.60;1.00;;;;;;5026594;28;20430;-74
2023/10/12 04:29:01;;;;;;;9.47;2.60;;;17.60;1.00;;;;;;5029614;28;20838;-75
2023/10/12 04:34:11;;;;;;;10.65;2.47;;;17.50;1.00;;;;;;5027194;28;20407;-75
2023/10/12 04:39:25;;;;;;;9.88;2.80;;;17.50;1.00;;;;;;5027431;28;20424;-75
2023/10/12 04:46:58;;;;;;;9.05;2.75;;;17.60;1.00;;;;;;5027024;28;20808;-74
2023/10/12 04:52:13;;;;;;;7.07;2.00;;;17.70;1.00;;;;;;5029423;28;20430;-74
2023/10/12 04:57:32;;;;;;;7.70;2.35;;;17.70;1.00;;;;;;5036839;28;20776;-75
2023/10/12 05:07:56;;;;;;;9.82;2.15;;;17.80;1.00;;;;;;5029842;28;20407;-73
2023/10/12 05:10:46;;;;;;;8.93;2.10;;;17.80;1.00;;;;;;5049337;28;21033;-74
2023/10/12 05:13:12;;;;;;;6.70;2.00;;;17.90;1.00;;;;;;5049153;28;20546;-74
2023/10/12 05:15:42;;;;;;;7.03;2.10;;;18.00;1.00;;;;;;5047453;28;20830;-74
2023/10/12 05:18:13;;;;;;;6.40;2.10;;;18.00;1.00;;;;;;5049068;28;20451;-74
2023/10/12 05:20:42;;;;;;;7.80;2.40;;;18.00;1.00;;;;;;5049358;28;20519;-74
2023/10/12 05:23:09;;;;;;;7.17;2.30;;;18.00;1.00;;;;;;5048011;28;20417;-74
2023/10/12 05:28:30;;;;;;;7.75;2.20;;;18.00;1.00;;;;;;5048959;28;20377;-74
2023/10/12 05:31:20;;;;;;;8.18;2.60;;;18.00;1.00;;;;;;5048948;28;20490;-74
2023/10/12 05:34:46;;;;;;;7.75;2.20;;;18.00;1.00;;;;;;5050146;28;20397;-74
2023/10/12 05:36:42;;;;;;;8.00;2.33;;;18.00;1.00;;;;;;5047362;28;20413;-74
2023/10/12 05:39:13;;;;;;;7.70;2.50;;;18.00;1.00;;;;;;5048874;28;20397;-74
2023/10/12 05:41:39;;;;;;;6.45;2.25;;;17.90;1.00;;;;;;5049119;28;20396;-74
2023/10/12 05:44:08;;;;;;;14.80;2.88;;;17.90;1.00;;;;;;5052182;28;20421;-74
2023/10/12 05:46:38;;;;;;;7.70;2.97;;;17.90;1.00;;;;;;5051396;28;20397;-74
2023/10/12 05:49:14;;;;;;;8.00;2.10;;;18.00;1.00;;;;;;5052613;28;20393;-74
2023/10/12 05:51:44;;;;;;;8.98;2.33;;;18.00;1.00;;;;;;5035811;28;20401;-75
2023/10/12 05:54:10;;;;;;;7.67;1.90;;;17.90;1.00;;;;;;5051547;28;20909;-74
2023/10/12 05:56:36;;;;;;;7.15;2.88;;;18.00;1.00;;;;;;5052629;28;20397;-74
2023/10/12 05:59:03;;;;;;;9.20;2.85;;;18.00;1.00;;;;;;5051787;28;20389;-74
2023/10/12 06:01:37;;;;;;;15.90;2.63;;;18.00;1.00;;;;;;5053118;28;20389;-74
2023/10/12 06:04:05;;;;;;;8.10;2.20;;;17.90;1.00;;;;;;5042633;28;20832;-74
2023/10/12 06:06:35;;;;;;;12.23;2.25;;;17.90;1.00;;;;;;5028522;28;20454;-74
2023/10/12 06:09:04;;;;;;;9.60;2.50;;;18.00;1.00;;;;;;5012870;28;20419;-74
2023/10/12 06:11:30;;;;;;;9.45;2.75;;;18.30;1.00;;;;;;5013042;28;20397;-74
2023/10/12 06:13:59;;;;;;;9.70;2.20;;;18.50;1.00;;;;;;5012146;28;20466;-74
2023/10/12 06:16:25;;;;;;;6.93;2.30;;;18.80;1.00;;;;;;5012018;28;20782;-74
2023/10/12 06:18:54;;;;;;;9.25;2.70;;;19.00;1.00;;;;;;5012337;28;20817;-74
2023/10/12 06:21:19;;;;;;;8.50;1.98;;;19.20;1.00;;;;;;5012256;28;20481;-73
2023/10/12 06:23:50;;;;;;;8.77;2.10;;;19.30;1.00;;;;;;5010637;28;20421;-73
2023/10/12 06:26:28;;;;;;;7.50;2.30;;;19.60;1.00;;;;;;5012445;28;20822;-73
2023/10/12 06:28:58;;;;;;;8.07;2.50;;;19.80;99.90;;;;;;5011755;28;20420;-73
2023/10/12 06:31:30;;;;;;;7.45;2.58;;;20.10;99.90;;;;;;5011992;28;20389;-72
2023/10/12 06:33:57;;;;;;;13.73;3.38;;;20.50;99.90;;;;;;5011630;28;20388;-73
2023/10/12 06:36:36;;;;;;;9.17;3.03;;;21.10;99.90;;;;;;5012345;28;20400;-73
2023/10/12 06:44:22;;;;;;;9.60;3.53;;;23.20;99.90;;;;;;5031356;28;20823;-73
2023/10/12 06:46:48;;;;;;;10.95;2.85;;;23.50;99.90;;;;;;5031707;28;20396;-75
2023/10/12 06:49:21;;;;;;;10.07;3.20;;;23.70;99.90;;;;;;5031504;28;20465;-75
2023/10/12 06:51:54;;;;;;;8.63;2.60;;;24.10;99.90;;;;;;5030276;28;20407;-73
2023/10/12 06:54:31;;;;;;;12.25;3.30;;;24.20;99.90;;;;;;5030120;28;20391;-73
2023/10/12 06:57:22;;;;;;;10.85;2.80;;;24.50;99.90;;;;;;5031516;28;20448;-73
2023/10/12 06:59:52;;;;;;;11.30;3.20;;;24.80;99.90;;;;;;5031226;28;20422;-73
2023/10/12 07:02:24;;;;;;;14.25;3.55;;;25.30;99.90;;;;;;5030824;28;20832;-73
2023/10/12 07:04:56;;;;;;;10.27;3.10;;;25.80;99.90;;;;;;5031316;28;20456;-73
2023/10/12 07:07:27;;;;;;;15.80;3.80;;;26.10;99.90;;;;;;5031377;28;20383;-73
2023/10/12 07:12:37;;;;;;;9.33;3.20;;;25.20;99.90;;;;;;5030956;28;20413;-73
2023/10/12 07:15:10;;;;;;;9.90;3.17;;;24.70;99.90;;;;;;5027790;28;20402;-73
2023/10/12 07:17:36;;;;;;;11.57;3.87;;;24.20;99.90;;;;;;5011273;28;20389;-73
2023/10/12 07:20:03;;;;;;;11.90;3.80;;;23.60;99.90;;;;;;5011776;28;20443;-74
2023/10/12 07:22:34;;;;;;;11.73;3.25;;;23.70;99.90;;;;;;5011567;28;20842;-74
2023/10/12 07:25:00;;;;;;;9.93;3.05;;;23.70;99.90;;;;;;5011627;28;20397;-73
2023/10/12 07:27:26;;;;;;;17.90;3.85;;;23.70;99.90;;;;;;5010867;28;20994;-73
2023/10/12 07:30:43;;;;;;;13.10;2.90;;;24.10;99.90;;;;;;5010915;28;20389;-73
2023/10/12 07:32:54;;;;;;;10.10;2.20;;;24.00;99.90;;;;;;5006759;28;20496;-74
2023/10/12 07:35:31;;;;;;;7.68;2.65;;;23.50;99.90;;;;;;5010786;28;20411;-74
2023/10/12 07:38:28;;;;;;;13.65;3.00;;;22.90;99.90;;;;;;5010681;28;20405;-74
2023/10/12 07:40:56;;;;;;;7.85;2.33;;;22.60;99.90;;;;;;5010957;28;20403;-74
2023/10/12 07:43:24;;;;;;;16.02;3.10;;;22.40;99.90;;;;;;5010675;28;21046;-74
2023/10/12 07:45:50;;;;;;;8.30;2.50;;;22.30;99.90;;;;;;5010931;28;20946;-74
2023/10/12 07:48:40;;;;;;;11.10;2.65;;;22.20;99.90;;;;;;5009981;28;20399;-74
2023/10/12 07:51:19;;;;;;;7.28;2.42;;;22.10;99.90;;;;;;5010596;28;20741;-74
2023/10/12 07:53:50;;;;;;;10.32;2.88;;;22.10;99.90;;;;;;5010570;28;20705;-73
2023/10/12 07:56:16;;;;;;;13.70;2.95;;;22.10;99.90;;;;;;5010463;28;20480;-73
2023/10/12 07:58:50;;;;;;;20.38;3.65;;;22.00;99.90;;;;;;5010823;28;20816;-74
2023/10/12 08:03:51;;;;;;;6.47;1.88;;;22.10;99.90;;;;;;5010377;28;20433;-74
2023/10/12 08:06:19;;;;;;;8.18;2.10;;;21.90;99.90;;;;;;5009864;28;20467;-74
2023/10/12 08:08:45;;;;;;;6.68;2.20;;;21.80;99.90;;;;;;5010499;28;20401;-74
2023/10/12 08:11:28;;;;;;;9.35;2.90;;;21.70;99.90;;;;;;5010234;28;20419;-73
2023/10/12 08:13:55;;;;;;;7.78;2.95;;;21.70;99.90;;;;;;5010212;28;20400;-74
2023/10/12 08:16:28;;;;;;;6.82;1.90;;;21.70;99.90;;;;;;5009684;28;20389;-73
2023/10/12 08:21:31;;;;;;;13.70;2.63;;;21.40;99.90;;;;;;5010302;28;20404;-74
2023/10/12 08:24:05;;;;;;;9.50;2.60;;;21.40;99.90;;;;;;5009766;28;20968;-74
2023/10/12 08:27:18;;;;;;;7.77;2.00;;;21.40;99.90;;;;;;5010325;28;21018;-74
2023/10/12 08:32:14;;;;;;;10.02;2.95;;;21.60;99.90;;;;;;5009714;28;20432;-74
2023/10/12 08:39:37;;;;;;;14.38;3.05;;;21.90;99.90;;;;;;5010068;28;20902;-74
2023/10/12 08:44:51;;;;;;;9.20;2.90;;;22.10;99.90;;;;;;5008440;28;22406;-74
2023/10/12 08:47:31;;;;;;;7.27;2.47;;;22.10;99.90;;;;;;5009405;28;20400;-74
2023/10/12 08:52:30;;;;;;;7.03;2.30;;;22.10;99.90;;;;;;5009915;28;20393;-74
2023/10/12 08:55:11;;;;;;;8.35;2.85;;;22.00;99.90;;;;;;5009684;28;20399;-73
2023/10/12 08:58:01;;;;;;;16.90;4.27;;;22.10;99.90;;;;;;5009591;28;20401;-73
2023/10/12 09:05:54;;;;;;;11.45;2.95;;;22.10;99.90;;;;;;5009145;28;20420;-74
2023/10/12 09:13:33;;;;;;;8.55;2.50;;;22.10;99.90;;;;;;5009658;28;20401;-74
2023/10/12 09:16:02;;;;;;;13.65;2.80;;;22.20;99.90;;;;;;5009649;28;20393;-74
2023/10/12 09:18:33;;;;;;;11.25;4.38;;;22.20;99.90;;;;;;5008870;28;20875;-74
2023/10/12 09:31:14;;;;;;;10.30;2.63;;;22.30;99.90;;;;;;5008794;28;20469;-73
2023/10/12 09:34:12;;;;;;;12.98;3.03;;;22.40;99.90;;;;;;5009539;28;20415;-73
2023/10/12 09:36:43;;;;;;;25.73;3.63;;;22.50;99.90;;;;;;5009039;28;20396;-73
2023/10/12 09:39:15;;;;;;;7.90;2.53;;;22.30;99.90;;;;;;5009102;28;20397;-73
2023/10/12 09:41:43;;;;;;;11.50;3.00;;;22.30;99.90;;;;;;5008960;28;20404;-73
2023/10/12 09:44:12;;;;;;;7.22;2.10;;;22.30;99.90;;;;;;5008738;28;20421;-73
2023/10/12 09:46:49;;;;;;;7.47;2.22;;;22.50;99.90;;;;;;5009072;28;20960;-73
2023/10/12 09:49:27;;;;;;;8.10;2.63;;;22.50;99.90;;;;;;5009245;28;20478;-73
2023/10/12 09:52:04;;;;;;;16.40;2.50;;;22.60;99.90;;;;;;5008833;28;20546;-74
2023/10/12 09:54:48;;;;;;;9.25;2.90;;;22.80;99.90;;;;;;5009419;28;20405;-73
2023/10/12 09:57:25;;;;;;;7.40;2.65;;;23.00;99.90;;;;;;5008949;28;20392;-73
2023/10/12 09:59:53;;;;;;;11.00;2.80;;;23.00;99.90;;;;;;5009035;28;20405;-73
2023/10/12 10:02:29;;;;;;;10.18;2.85;;;23.10;99.90;;;;;;5008451;28;20527;-73
2023/10/12 10:05:11;;;;;;;8.80;2.80;;;23.10;99.90;;;;;;5008727;28;20475;-73
2023/10/12 10:07:56;;;;;;;23.10;3.70;;;23.10;99.90;;;;;;5008933;28;20404;-73
2023/10/12 10:10:30;;;;;;;8.63;2.55;;;23.10;99.90;;;;;;5008702;28;20954;-74
2023/10/12 10:13:12;;;;;;;15.57;3.53;;;23.10;99.90;;;;;;5008434;28;20385;-74
2023/10/12 10:15:56;;;;;;;11.00;2.60;;;23.00;99.90;;;;;;5008649;28;20916;-74
2023/10/12 10:18:25;;;;;;;10.05;2.65;;;23.10;99.90;;;;;;5008982;28;20393;-75
2023/10/12 10:20:58;;;;;;;10.75;2.55;;;23.20;99.90;;;;;;5008483;28;20479;-74
2023/10/12 10:23:24;;;;;;;13.15;2.92;;;23.10;99.90;;;;;;5008522;28;20516;-75
2023/10/12 10:26:00;;;;;;;14.27;3.45;;;23.10;99.90;;;;;;5008638;28;20393;-74
2023/10/12 10:28:28;;;;;;;7.22;2.60;;;23.20;99.90;;;;;;5009104;28;20405;-74
2023/10/12 10:30:59;;;;;;;12.05;2.58;;;23.20;99.90;;;;;;5012193;28;20393;-75
2023/10/12 10:33:26;;;;;;;9.70;3.00;;;23.50;99.90;;;;;;5011953;28;20420;-76
2023/10/12 10:36:13;;;;;;;8.75;3.00;;;23.80;99.90;;;;;;5012321;28;20397;-76
2023/10/12 10:41:18;;;;;;;16.92;4.70;;;23.70;99.90;;;;;;5011737;28;20405;-76
2023/10/12 10:43:45;;;;;;;10.30;3.60;;;23.60;99.90;;;;;;5012049;28;20941;-76
2023/10/12 10:46:13;;;;;;;14.32;4.05;;;23.70;99.90;;;;;;5011405;28;20757;-76
2023/10/12 10:48:40;;;;;;;12.48;3.60;;;24.00;99.90;;;;;;5012098;28;20937;-76
2023/10/12 10:51:19;;;;;;;14.13;3.10;;;24.00;99.90;;;;;;5011791;28;20460;-76
2023/10/12 10:53:51;;;;;;;9.03;3.07;;;24.10;99.90;;;;;;5011907;28;20393;-74
2023/10/12 10:56:28;;;;;;;9.63;2.70;;;24.10;99.90;;;;;;5011269;28;20902;-74
2023/10/12 10:58:55;;;;;;;11.27;3.00;;;24.10;99.90;;;;;;5011769;28;20408;-74
2023/10/12 11:01:20;;;;;;;18.57;4.47;;;24.30;99.90;;;;;;5011802;28;20385;-73
2023/10/12 11:03:46;;;;;;;7.23;2.70;;;24.40;99.90;;;;;;5011484;28;20499;-73
2023/10/12 11:06:24;;;;;;;18.08;3.45;;;24.40;99.90;;;;;;5011331;28;20496;-74
2023/10/12 11:09:01;;;;;;;12.30;3.35;;;24.30;99.90;;;;;;5011659;28;20385;-74
2023/10/12 11:11:37;;;;;;;19.58;5.72;;;24.40;99.90;;;;;;5011445;28;20391;-74
2023/10/12 11:14:04;;;;;;;27.67;6.97;;;24.60;99.90;;;;;;5011406;28;20858;-74
2023/10/12 11:16:32;;;;;;;16.45;4.45;;;24.60;99.90;;;;;;5011422;28;20381;-74
2023/10/12 11:18:58;;;;;;;9.52;3.50;;;24.60;99.90;;;;;;5012026;28;20396;-74
2023/10/12 11:21:25;;;;;;;34.00;4.53;;;24.50;99.90;;;;;;5011177;28;20496;-74
2023/10/12 11:24:01;;;;;;;13.50;3.72;;;24.00;99.90;;;;;;5010638;28;20418;-74
2023/10/12 11:26:27;;;;;;;15.38;3.83;;;23.60;99.90;;;;;;5011187;28;20936;-74
2023/10/12 11:29:06;;;;;;;15.55;4.30;;;23.40;99.90;;;;;;5011051;28;20431;-74
2023/10/12 11:31:34;;;;;;;9.10;3.47;;;23.50;99.90;;;;;;5011256;28;20436;-74
2023/10/12 11:34:06;;;;;;;10.68;3.33;;;23.40;99.90;;;;;;5011440;28;20979;-74
2023/10/12 11:36:35;;;;;;;9.50;2.90;;;23.50;99.90;;;;;;5011164;28;20415;-74
2023/10/12 11:39:16;;;;;;;16.48;4.30;;;23.40;99.90;;;;;;5013386;28;20770;-74
2023/10/12 11:41:42;;;;;;;12.45;4.07;;;23.60;99.90;;;;;;5022993;28;20387;-74
2023/10/12 11:44:08;;;;;;;10.35;3.22;;;23.70;99.90;;;;;;5030589;28;20451;-74
2023/10/12 11:46:43;;;;;;;8.52;2.80;;;23.60;99.90;;;;;;5028893;28;20453;-74
2023/10/12 11:49:13;;;;;;;16.98;4.00;;;23.60;99.90;;;;;;5027593;28;20432;-73
2023/10/12 11:51:45;;;;;;;13.65;3.53;;;23.20;99.90;;;;;;5026295;28;20797;-75
2023/10/12 11:54:32;;;;;;;13.70;3.33;;;23.20;99.90;;;;;;5029570;28;20395;-75
2023/10/12 11:56:58;;;;;;;11.70;2.70;;;23.20;99.90;;;;;;5030898;28;20495;-75
2023/10/12 11:59:31;;;;;;;9.82;3.10;;;23.00;99.90;;;;;;5030263;28;20389;-74
2023/10/12 12:02:06;;;;;;;12.43;4.07;;;23.00;99.90;;;;;;5030433;28;20944;-75
2023/10/12 12:04:39;;;;;;;11.35;3.30;;;23.00;99.90;;;;;;5030941;28;20431;-75
2023/10/12 12:07:10;;;;;;;11.80;3.17;;;23.00;99.90;;;;;;5029767;28;20405;-73
2023/10/12 12:09:40;;;;;;;9.27;2.60;;;22.80;99.90;;;;;;5029956;28;20751;-73
2023/10/12 12:12:12;;;;;;;8.20;2.80;;;22.60;99.90;;;;;;5029882;28;20379;-72
2023/10/12 12:14:38;;;;;;;8.15;3.03;;;22.60;99.90;;;;;;5030275;28;20474;-73
2023/10/12 12:17:04;;;;;;;10.73;3.97;;;22.60;99.90;;;;;;5029698;28;20399;-73
2023/10/12 12:19:33;;;;;;;10.48;2.70;;;22.90;99.90;;;;;;5030644;28;20393;-73
2023/10/12 12:21:58;;;;;;;14.95;4.07;;;22.90;99.90;;;;;;5030233;28;20434;-73
2023/10/12 12:24:25;;;;;;;10.75;3.28;;;23.00;99.90;;;;;;5029630;28;20503;-75
2023/10/12 12:26:54;;;;;;;9.60;2.65;;;23.10;99.90;;;;;;5029889;28;20905;-73
2023/10/12 12:29:27;;;;;;;10.82;3.17;;;23.00;99.90;;;;;;5030116;28;20395;-74
2023/10/12 12:31:56;;;;;;;12.70;5.20;;;22.80;99.90;;;;;;5029771;28;20391;-74
2023/10/12 12:37:22;;;;;;;8.40;2.60;;;23.20;99.90;;;;;;5006613;28;20453;-74
2023/10/12 12:40:13;;;;;;;9.35;2.90;;;23.40;99.90;;;;;;5029666;28;20406;-75
2023/10/12 12:42:36;;;;;;;11.40;3.40;;;23.50;99.90;;;;;;5029579;28;20529;-74
2023/10/12 12:45:03;;;;;;;11.70;3.47;;;23.60;99.90;;;;;;5029822;28;20474;-74
2023/10/12 12:47:32;;;;;;;11.00;2.90;;;23.60;99.90;;;;;;5029977;28;20805;-74
2023/10/12 12:50:00;;;;;;;14.50;3.15;;;23.40;99.90;;;;;;5030187;28;20387;-74
2023/10/12 12:52:27;;;;;;;9.15;4.32;;;23.10;99.90;;;;;;5027909;28;20383;-74
2023/10/12 12:54:52;;;;;;;8.82;3.03;;;23.00;99.90;;;;;;5029593;28;20406;-74
2023/10/12 12:57:18;;;;;;;10.60;3.00;;;23.10;99.90;;;;;;5029362;28;20387;-74
2023/10/12 12:59:44;;;;;;;12.95;3.03;;;23.20;99.90;;;;;;5029295;28;20418;-74
2023/10/12 13:02:09;;;;;;;11.75;3.03;;;23.30;99.90;;;;;;5029282;28;20391;-75
2023/10/12 13:04:35;;;;;;;13.47;3.47;;;23.60;99.90;;;;;;5029217;28;20423;-75
2023/10/12 13:07:08;;;;;;;11.80;3.33;;;23.60;99.90;;;;;;5029368;28;20415;-75
2023/10/12 13:09:36;;;;;;;8.93;3.60;;;23.50;99.90;;;;;;5029510;28;20482;-75
2023/10/12 13:12:05;;;;;;;9.30;2.83;;;23.50;99.90;;;;;;5029798;28;20383;-75
2023/10/12 13:14:31;;;;;;;8.90;2.78;;;23.60;99.90;;;;;;5029458;28;20383;-75
2023/10/12 13:16:57;;;;;;;10.13;3.17;;;23.50;99.90;;;;;;5019504;28;20435;-75
2023/10/12 13:19:24;;;;;;;11.77;3.80;;;23.60;99.90;;;;;;5009606;28;20887;-74
2023/10/12 13:21:49;;;;;;;9.70;4.00;;;23.50;99.90;;;;;;5018575;28;20399;-74
2023/10/12 13:24:15;;;;;;;12.03;3.50;;;23.30;99.90;;;;;;5028761;28;20813;-74
2023/10/12 13:26:43;;;;;;;10.27;3.67;;;23.20;99.90;;;;;;5028895;28;20419;-73
2023/10/12 13:29:11;;;;;;;9.75;3.42;;;23.10;99.90;;;;;;5028633;28;20967;-74
2023/10/12 13:31:37;;;;;;;11.57;4.15;;;22.90;99.90;;;;;;5029925;28;20920;-74
2023/10/12 13:34:05;;;;;;;12.10;4.72;;;22.90;99.90;;;;;;5028392;28;20375;-75
2023/10/12 13:36:32;;;;;;;13.60;4.63;;;22.90;99.90;;;;;;5028628;28;20844;-75
2023/10/12 13:38:59;;;;;;;12.60;3.50;;;22.90;99.90;;;;;;5024657;28;20822;-74
2023/10/12 13:41:25;;;;;;;10.80;3.70;;;23.00;99.90;;;;;;5028020;28;20384;-74
2023/10/12 13:43:51;;;;;;;13.88;3.80;;;23.30;99.90;;;;;;5026514;28;20460;-74
2023/10/12 13:46:16;;;;;;;13.13;4.50;;;23.40;99.90;;;;;;5027897;28;20494;-74
2023/10/12 13:48:42;;;;;;;12.90;3.40;;;23.50;99.90;;;;;;5028047;28;20394;-74
2023/10/12 13:51:08;;;;;;;10.53;3.00;;;23.70;99.90;;;;;;5027893;28;20387;-75
2023/10/12 13:53:38;;;;;;;10.90;3.65;;;23.70;99.90;;;;;;5026698;28;20397;-75
2023/10/12 13:56:04;;;;;;;10.93;3.40;;;23.60;99.90;;;;;;5026949;28;20380;-76
2023/10/12 13:58:34;;;;;;;14.43;4.05;;;23.50;99.90;;;;;;5026017;28;20395;-75
2023/10/12 14:01:02;;;;;;;8.18;3.42;;;23.60;99.90;;;;;;5026825;28;20454;-75
2023/10/12 14:03:28;;;;;;;9.38;3.88;;;23.60;99.90;;;;;;5027444;28;20481;-75
2023/10/12 14:05:56;;;;;;;10.93;3.63;;;23.50;99.90;;;;;;5029773;28;20418;-76
2023/10/12 14:08:24;;;;;;;7.72;2.88;;;23.50;99.90;;;;;;5031767;28;20469;-76
2023/10/12 14:10:51;;;;;;;8.47;3.20;;;23.60;99.90;;;;;;5031289;28;20812;-76
2023/10/12 14:13:17;;;;;;;9.80;3.20;;;23.70;99.90;;;;;;5045630;28;20863;-74
2023/10/12 14:15:43;;;;;;;9.93;2.95;;;23.80;99.90;;;;;;5038501;28;20392;-74
2023/10/12 14:18:11;;;;;;;14.87;2.90;;;23.90;99.90;;;;;;5019266;28;21043;-74
2023/10/12 14:20:39;;;;;;;9.87;3.70;;;24.00;99.90;;;;;;5026140;28;20438;-74
2023/10/12 14:23:07;;;;;;;8.90;3.38;;;23.90;99.90;;;;;;5031868;28;20422;-74
2023/10/12 14:25:46;;;;;;;14.15;3.10;;;23.90;99.90;;;;;;5033034;28;20402;-75
2023/10/12 14:28:16;;;;;;;12.10;4.18;;;23.90;99.90;;;;;;5040755;28;20485;-75
2023/10/12 14:30:42;;;;;;;9.88;3.17;;;23.80;99.90;;;;;;5030614;28;20473;-75
2023/10/12 14:33:08;;;;;;;13.57;3.20;;;23.80;99.90;;;;;;5031855;28;20391;-75
2023/10/12 14:35:38;;;;;;;9.80;4.10;;;24.00;99.90;;;;;;5029843;28;20407;-75
2023/10/12 14:38:08;;;;;;;11.90;3.45;;;24.10;99.90;;;;;;5032304;28;20479;-76
2023/10/12 14:40:35;;;;;;;10.55;2.92;;;24.10;99.90;;;;;;5028128;28;20403;-74
2023/10/12 14:43:07;;;;;;;9.43;3.60;;;24.20;99.90;;;;;;5031994;28;20454;-76
2023/10/12 14:45:43;;;;;;;13.83;3.20;;;24.10;99.90;;;;;;5015145;28;20434;-76
2023/10/12 14:48:09;;;;;;;15.98;3.60;;;24.00;99.90;;;;;;5030166;28;20987;-76
2023/10/12 14:50:43;;;;;;;10.90;3.63;;;23.80;99.90;;;;;;5031302;28;20487;-75
2023/10/12 14:53:09;;;;;;;8.40;2.70;;;23.60;99.90;;;;;;5031720;28;20493;-75
2023/10/12 14:55:36;;;;;;;12.48;3.05;;;23.40;99.90;;;;;;5030404;28;20403;-75
2023/10/12 14:58:02;;;;;;;8.45;2.75;;;23.30;99.90;;;;;;5031766;28;20401;-74
2023/10/12 15:00:29;;;;;;;10.00;2.80;;;23.30;99.90;;;;;;5031416;28;20396;-75
2023/10/12 15:02:57;;;;;;;11.77;3.87;;;23.40;99.90;;;;;;5030853;28;20473;-75
2023/10/12 15:05:27;;;;;;;10.48;2.80;;;23.50;99.90;;;;;;5030343;28;20884;-75
2023/10/12 15:07:56;;;;;;;8.00;2.80;;;23.50;99.90;;;;;;5031658;28;20547;-75
2023/10/12 15:10:21;;;;;;;7.97;2.55;;;23.40;99.90;;;;;;5030323;28;20507;-75
2023/10/12 15:12:50;;;;;;;13.25;3.50;;;23.50;99.90;;;;;;5030586;28;20827;-75